Login   Iscriviti    Portale ilVolo.it    Indice Forum    Aerofan.it PhotoGallery    Cerca    FAQ    Regolamento

Il meteo su Washington

AVIATION TOP 100 - www.avitop.com Avitop.com

Indice  »  Flight Crews Area  »  Meteo

 

 


Apri un nuovo argomento Rispondi all’argomento  [ 14 messaggi ] 
Autore Messaggio
 Oggetto del messaggio: Un po' di arietta oggi...
 Messaggio Inviato: 13/10/2008, 16:49 
Community Member
Community Member
Avatar utente
Non connesso
Non indicato
Iscritto il: 01/04/2008
Messaggi: 1322
KSNA 131453Z AUTO 04018G30KT 9SM CLR 18/M09 A3017 RMK AO2 PK WND 05033/1402 SLP217 T01831094 51019 $

quasi quasi me ne sto a terra :) Guardate la temperatura e il dewpoit!

_________________
The quick brown fox jumps over the lazy dog

Immagine


Top 
 Profilo  
 
 Oggetto del messaggio: Re: Un po' di arietta oggi...
 Messaggio Inviato: 13/10/2008, 16:52 
L'utente FAS ha chiesto in data 17-01-2010 la cancellazione definitiva del proprio account; inoltre ha richiesto, ai sensi del Regolamento, l'immediata cancellazione di tutti i contenuti da lui inseriti nel forum.
La diffusione della cultura aeronautica è lo scopo prevalente di questo sito: pertanto l'amministrazione prende atto con rammarico di questa privazione voluta dall'autore e si scusa con l'utenza per il disagio che ciò potrebbe provocare nella lettura degli argomenti.


Top 
  
 
 Oggetto del messaggio: Re: Un po' di arietta oggi...
 Messaggio Inviato: 13/10/2008, 17:14 
IT Support & Ops
IT Support & Ops
Avatar utente
Non connesso
Uomo
Iscritto il: 01/04/2008
Messaggi: 4109
Località: Winterthur (ZH)
Età: 48
Isidoro KZ ha scritto:
KSNA 131453Z AUTO 04018G30KT 9SM CLR 18/M09 A3017 RMK AO2 PK WND 05033/1402 SLP217 T01831094 51019 $

quasi quasi me ne sto a terra :) Guardate la temperatura e il dewpoit!


Quattro domande:
1) AUTO = ?
2) 9SM = ?
3) 27 gradi fra il dewpoint e la temp = aria secca; phon o come si chiama in lingua locale?
4) la $ in fondo al METAR indica un problema di precisione nelle misure?

CLR immagino sia sinonimo di SKC...

_________________
Cordiali saluti/Best regards/Mit freundliche Grüßen,
andrea
Software Sorcery Specialist


Top 
 Profilo  
 
 Oggetto del messaggio: Re: Un po' di arietta oggi...
 Messaggio Inviato: 13/10/2008, 19:25 
Community Member
Community Member
Avatar utente
Non connesso
Non indicato
Iscritto il: 01/04/2008
Messaggi: 1322
AlphaPapa ha scritto:
Quattro domande:
1) AUTO = ?
2) 9SM = ?
3) 27 gradi fra il dewpoint e la temp = aria secca; phon o come si chiama in lingua locale?
4) la $ in fondo al METAR indica un problema di precisione nelle misure?

CLR immagino sia sinonimo di SKC...


Sistema automatico di rilevazione: nessun umano ci ha messo le mani. 9 Statute Miles di visibilita`, siamo in pieno regime di vento di favonio, localmente chiamato Santa Ana wind, perche' scende dai monti di santa ana. $: il sistema di misura dice che si devono cacciare fuori dei dollari per la calibrazione :)

Questi gli ultimi

KSNA 131753Z AUTO 07015G27KT 10SM CLR 23/M09 A3018 RMK AO2 PK WND 06038/1721 SLP219 T02281089 10228 20178 50003 $

KLGB 131753Z COR VRB06KT 5SM HZ CLR 23/M09 A3019 RMK AO2 SLP222 T02281089 10228 20122 50004 $

LGB e` 15 miglia a nord di sna, c'e` un po' di differenza (a parte la solita aria secchissima). Il metar di LGB e`stato CORretto a mano.

_________________
The quick brown fox jumps over the lazy dog

Immagine


Top 
 Profilo  
 
 Oggetto del messaggio: Re: Un po' di arietta oggi...
 Messaggio Inviato: 28/11/2008, 7:10 
Community Member
Community Member
Non connesso
Non indicato
Iscritto il: 17/03/2008
Messaggi: 5031
LIRF 280550Z 13021G35KT 9999 -DZ FEW010 SCT020 16/11 Q1006 NOSIG

Oggi a malapena si può girare in macchina... :mrgreen:

_________________
Mau

ilVolo.it


Top 
 Profilo  
 
 Oggetto del messaggio: Re: Un po' di arietta oggi...
 Messaggio Inviato: 28/11/2008, 7:28 
Aviation Psychologist
Aviation Psychologist
Avatar utente
Non connesso
Uomo
Iscritto il: 17/03/2008
Messaggi: 2392
Gozer ha scritto:
LIRF 280550Z 13021G35KT 9999 -DZ FEW010 SCT020 16/11 Q1006 NOSIG

Oggi a malapena si può girare in macchina... :mrgreen:


Confermo!!!
Per entrare in ufficio ho dovuto dar fondo ad ogni residua scorta di energie...avevo vento contrario :mrgreen:
Alla fine ce l'ho fatta però!!!! :ok:

Fearless Flyer 2.0

_________________
Luca Evangelisti
Responsabile "Voglia di Volare"
A L I T A L I A


Sito ufficiale "Voglia di volare"

"Il modo migliore per venirne fuori è sempre buttarsi dentro"
R. Frost


Top 
 Profilo  
 
 Oggetto del messaggio: Re: Un po' di arietta oggi...
 Messaggio Inviato: 28/11/2008, 8:44 
Community Member
Community Member
Avatar utente
Non connesso
Uomo
Iscritto il: 02/04/2008
Messaggi: 5131
Località: Roma
Età: 34
Ammazza, una bufera in pratica. :mrgreen: :mrgreen:

_________________
Se hai provato per una volta l'emozione del volo,camminerai per sempre sulla terra con gli occhi rivolti al cielo.

Immagine


Top 
 Profilo  
 
 Oggetto del messaggio: Re: Un po' di arietta oggi...
 Messaggio Inviato: 28/11/2008, 8:55 
Continuous Airworthiness Engineer
Continuous Airworthiness Engineer
Avatar utente
Non connesso
Uomo
Iscritto il: 15/04/2008
Messaggi: 1246
Età: 37
LIRA 280715Z 14018G33KT 090V190 9999 -RA FEW016 SCT025 BKN070 13/06 Q1004 WS RWY 15

Bella giornata... :yes:

_________________
Tixio®
********************
Immagine


Top 
 Profilo  
 
 Oggetto del messaggio: Re: Un po' di arietta oggi...
 Messaggio Inviato: 28/11/2008, 9:04 
L'utente FAS ha chiesto in data 17-01-2010 la cancellazione definitiva del proprio account; inoltre ha richiesto, ai sensi del Regolamento, l'immediata cancellazione di tutti i contenuti da lui inseriti nel forum.
La diffusione della cultura aeronautica è lo scopo prevalente di questo sito: pertanto l'amministrazione prende atto con rammarico di questa privazione voluta dall'autore e si scusa con l'utenza per il disagio che ciò potrebbe provocare nella lettura degli argomenti.


Top 
  
 
 Oggetto del messaggio: Re: Un po' di arietta oggi...
 Messaggio Inviato: 28/11/2008, 9:12 
Community Member
Community Member
Non connesso
Non indicato
Iscritto il: 17/03/2008
Messaggi: 5031
Sempre meglio :mrgreen:

LIRF 280750Z 13023G35KT 9999 -RA FEW020 BKN040 15/11 Q1005 NOSIG

_________________
Mau

ilVolo.it


Top 
 Profilo  
 
 Oggetto del messaggio: Re: Un po' di arietta oggi...
 Messaggio Inviato: 28/11/2008, 15:12 
Community Member
Community Member
Avatar utente
Non connesso
Non indicato
Iscritto il: 24/11/2008
Messaggi: 92
LIQZ 281355Z 13030KT 6000 TSRA SCT004CB SCT005 15/14

Anche a Ponza non scherzano...poveri isolani... :shock:

_________________
National Glider Aerobatic Team ITALIA

Si sono viste tante aquile abbassarsi a volare al livello dei polli...ma non si sono mai visti polli volare alti come aquile...;-)


Top 
 Profilo  
 
 Oggetto del messaggio: Re: Un po' di arietta oggi...
 Messaggio Inviato: 28/11/2008, 15:16 
ilVolo.it Crew
ilVolo.it Crew
Avatar utente
Non connesso
Uomo
Iscritto il: 17/03/2008
Messaggi: 15309
Località: Somewhere in Sardinia Island...
Età: 37
Qui siamo di nuovo in emergenza; al mio paese c'è stata alluvione così come in altre località, incluse quelle già colpite quest'anno... Siamo sotto piogge torrenziali. Per fortuna il vento si è calmato parecchio, ieri ha superato i 100 km/h e ha staccato una nave dagli ormeggi.

_________________
Carlo

Immagine

E' arrivata Spotters Magazine, la prima rivista italiana di fotografia aeronautica!


Top 
 Profilo  
 
 Oggetto del messaggio: Re: Un po' di arietta oggi...
 Messaggio Inviato: 29/11/2008, 18:42 
ilVolo.it Crew
ilVolo.it Crew
Avatar utente
Non connesso
Uomo
Iscritto il: 18/03/2008
Messaggi: 13816
Età: 52
Io ieri mattina sono atterrato a Linate e ieri sera a Venezia (CRJ e 737). Tra gli atterraggi più turbolenti cha abbia mai avuto (linea...)

_________________
Franco

http://www.aeroclubpadova.it
http://www.voloavelapadova.it
JetPhotos.Net, Spotting Group ilVolo.it

Immagine


Top 
 Profilo  
 
 Oggetto del messaggio: Re: Un po' di arietta oggi...
 Messaggio Inviato: 30/11/2008, 23:12 
Community Member
Community Member
Non connesso
Non indicato
Iscritto il: 17/03/2008
Messaggi: 5031
Anche stasera non ci facciamo mancare niente :mrgreen:

LIRF 302150Z 16024G37KT 9999 FEW025 16/10 Q1005 WS RWY 16L NOSIG

Confermo decolli in corso per 16L :c8l:

_________________
Mau

ilVolo.it


Top 
 Profilo  
 
Visualizza ultimi messaggi:  Ordina per  
 
Apri un nuovo argomento Rispondi all’argomento  [ 14 messaggi ] 

Indice  »  Flight Crews Area  »  Meteo


 

Chi c’è in linea

Visitano il forum: Nessuno e 1 ospite

 
 

 
Non puoi aprire nuovi argomenti
Non puoi rispondere negli argomenti
Non puoi modificare i tuoi messaggi
Non puoi cancellare i tuoi messaggi
Non puoi inviare allegati

Cerca per:
Vai a: